createdAt,value
2022-10-13T00:01:28.929Z,0.00
2022-10-13T00:02:28.466Z,0.00
2022-10-13T00:04:32.475Z,0.00
2022-10-13T00:05:32.487Z,0.00
2022-10-13T00:07:36.971Z,0.00
2022-10-13T00:08:36.507Z,0.00
2022-10-13T00:10:40.517Z,0.00
2022-10-13T00:11:40.526Z,0.00
2022-10-13T00:13:45.008Z,0.00
2022-10-13T00:14:44.541Z,0.00
2022-10-13T00:16:48.553Z,0.00
2022-10-13T00:17:48.556Z,0.00
2022-10-13T00:19:53.052Z,0.00
2022-10-13T00:20:52.580Z,0.00
2022-10-13T00:22:45.518Z,0.00
2022-10-13T00:23:45.527Z,0.00
2022-10-13T00:25:50.014Z,0.00
2022-10-13T00:26:49.567Z,0.00
2022-10-13T00:28:53.616Z,0.00
2022-10-13T00:29:53.574Z,0.00
2022-10-13T00:31:58.061Z,0.00
2022-10-13T00:32:57.592Z,0.00
2022-10-13T00:35:01.617Z,0.00
2022-10-13T00:36:01.614Z,0.00
2022-10-13T00:38:06.103Z,0.00
2022-10-13T00:39:05.638Z,0.00
2022-10-13T00:40:05.656Z,0.00
2022-10-13T00:41:05.811Z,0.00
2022-10-13T00:42:05.693Z,0.00
2022-10-13T00:43:05.712Z,0.00
2022-10-13T00:44:05.749Z,0.00
2022-10-13T00:45:05.756Z,0.00
2022-10-13T00:46:05.773Z,0.00
2022-10-13T00:47:05.797Z,0.00
2022-10-13T00:48:05.816Z,0.00
2022-10-13T00:49:05.839Z,0.00
2022-10-13T00:50:05.866Z,0.00
2022-10-13T00:51:05.879Z,0.00
2022-10-13T00:52:05.895Z,0.00
2022-10-13T00:53:05.932Z,0.00
2022-10-13T00:54:05.940Z,0.00
2022-10-13T00:55:05.964Z,0.00
2022-10-13T00:56:05.983Z,0.00
2022-10-13T00:57:06.005Z,0.00
2022-10-13T00:58:06.018Z,0.00
2022-10-13T00:59:06.040Z,0.00
2022-10-13T01:00:06.065Z,0.00
2022-10-13T01:01:06.116Z,0.00
2022-10-13T01:02:06.105Z,0.00
2022-10-13T01:03:06.122Z,0.00
2022-10-13T01:04:06.184Z,0.00
2022-10-13T01:05:06.161Z,0.00
2022-10-13T01:06:06.181Z,0.00
2022-10-13T01:07:06.203Z,0.00
2022-10-13T01:08:06.227Z,0.00
2022-10-13T01:09:06.254Z,0.00
2022-10-13T01:10:06.266Z,0.00
2022-10-13T01:11:06.289Z,0.00
2022-10-13T01:12:06.304Z,0.00
2022-10-13T01:13:06.330Z,0.00
2022-10-13T01:14:06.347Z,0.00
2022-10-13T01:15:06.367Z,0.00
2022-10-13T01:16:06.391Z,0.00
2022-10-13T01:17:06.408Z,0.00
2022-10-13T01:18:06.431Z,0.00
2022-10-13T01:19:06.450Z,0.00
2022-10-13T01:20:06.466Z,0.00
2022-10-13T01:21:06.489Z,0.00
2022-10-13T01:22:06.513Z,0.00
2022-10-13T01:23:06.533Z,0.00
2022-10-13T01:24:06.549Z,0.00
2022-10-13T01:25:06.573Z,0.00
2022-10-13T01:26:06.587Z,0.00
2022-10-13T01:27:06.612Z,0.00
2022-10-13T01:28:06.635Z,0.00
2022-10-13T01:29:06.658Z,0.00
2022-10-13T01:30:06.674Z,0.00
2022-10-13T01:31:06.694Z,0.00
2022-10-13T01:32:06.712Z,0.00
2022-10-13T01:33:06.733Z,0.00
2022-10-13T01:34:06.758Z,0.00
2022-10-13T01:35:06.780Z,0.00
2022-10-13T01:36:06.795Z,0.00
2022-10-13T01:37:06.818Z,0.00
2022-10-13T01:38:06.835Z,0.00
2022-10-13T01:39:06.856Z,0.00
2022-10-13T01:40:06.882Z,0.00
2022-10-13T01:41:06.903Z,0.00
2022-10-13T01:42:06.918Z,0.00
2022-10-13T01:43:06.942Z,0.00
2022-10-13T01:44:06.960Z,0.00
2022-10-13T01:45:06.985Z,0.00
2022-10-13T01:46:07.002Z,0.00
2022-10-13T01:47:07.025Z,0.00
2022-10-13T01:48:07.043Z,0.00
2022-10-13T01:49:07.065Z,0.00
2022-10-13T01:50:07.085Z,0.00
2022-10-13T01:51:07.104Z,0.00
2022-10-13T01:52:07.124Z,0.00
2022-10-13T01:53:07.151Z,0.00
2022-10-13T01:54:07.168Z,0.00
2022-10-13T01:55:07.188Z,0.00
2022-10-13T01:56:07.206Z,0.00
2022-10-13T01:57:07.229Z,0.00
2022-10-13T01:58:07.249Z,0.00
2022-10-13T01:59:07.268Z,0.00
2022-10-13T02:00:07.291Z,0.00
2022-10-13T02:01:07.397Z,0.00
2022-10-13T02:02:07.329Z,0.00
2022-10-13T02:03:07.350Z,0.00
2022-10-13T02:04:07.386Z,0.00
2022-10-13T02:05:07.393Z,0.00
2022-10-13T02:06:07.418Z,0.00
2022-10-13T02:07:07.437Z,0.00
2022-10-13T02:08:07.455Z,0.00
2022-10-13T02:09:07.474Z,0.00
2022-10-13T02:10:07.496Z,0.00
2022-10-13T02:11:07.512Z,0.00
2022-10-13T02:12:07.548Z,0.00
2022-10-13T02:13:07.557Z,0.00
2022-10-13T02:14:07.577Z,0.00
2022-10-13T02:15:07.600Z,0.00
2022-10-13T02:16:07.621Z,0.00
2022-10-13T02:17:07.647Z,0.00
2022-10-13T02:18:07.660Z,0.00
2022-10-13T02:19:07.683Z,0.00
2022-10-13T02:20:07.698Z,0.00
2022-10-13T02:21:07.717Z,0.00
2022-10-13T02:22:07.739Z,0.00
2022-10-13T02:23:07.759Z,0.00
2022-10-13T02:24:07.781Z,0.00
2022-10-13T02:25:07.804Z,0.00
2022-10-13T02:26:07.821Z,0.00
2022-10-13T02:27:07.845Z,0.00
2022-10-13T02:28:07.864Z,0.00
2022-10-13T02:29:07.886Z,0.00
2022-10-13T02:30:07.903Z,0.00
2022-10-13T02:31:07.922Z,0.00
2022-10-13T02:32:07.945Z,0.00
2022-10-13T02:33:07.969Z,0.00
2022-10-13T02:34:08.005Z,0.00
2022-10-13T02:35:08.009Z,0.00
2022-10-13T02:36:08.027Z,0.00
2022-10-13T02:37:08.053Z,0.00
2022-10-13T02:38:08.068Z,0.00
2022-10-13T02:39:08.092Z,0.00
2022-10-13T02:40:08.111Z,0.00
2022-10-13T02:41:08.131Z,0.00
2022-10-13T02:42:08.158Z,0.00
2022-10-13T02:43:08.171Z,0.00
2022-10-13T02:44:08.194Z,0.00
2022-10-13T02:45:08.214Z,0.00
2022-10-13T02:46:08.239Z,0.00
2022-10-13T02:47:08.255Z,0.00
2022-10-13T02:48:08.282Z,0.00
2022-10-13T02:49:08.300Z,0.00
2022-10-13T02:50:08.330Z,0.00
2022-10-13T02:51:08.339Z,0.00
2022-10-13T02:52:08.362Z,0.00
2022-10-13T02:53:08.385Z,0.00
2022-10-13T02:54:08.404Z,0.00
2022-10-13T02:55:08.422Z,0.00
2022-10-13T02:56:08.460Z,0.00
2022-10-13T02:57:08.463Z,0.00
2022-10-13T02:58:08.487Z,0.00
2022-10-13T02:59:08.528Z,0.00
2022-10-13T03:00:08.543Z,0.00
2022-10-13T03:01:08.576Z,0.00
2022-10-13T03:02:08.570Z,0.00
2022-10-13T03:03:08.590Z,0.00
2022-10-13T03:04:08.756Z,0.00
2022-10-13T03:05:08.636Z,0.00
2022-10-13T03:06:08.655Z,0.00
2022-10-13T03:07:08.677Z,0.00
2022-10-13T03:08:08.697Z,0.00
2022-10-13T03:09:08.718Z,0.00
2022-10-13T03:10:08.738Z,0.00
2022-10-13T03:11:08.763Z,0.00
2022-10-13T03:12:08.784Z,0.00
2022-10-13T03:13:08.805Z,0.00
2022-10-13T03:14:08.833Z,0.00
2022-10-13T03:15:08.844Z,0.00
2022-10-13T03:16:08.871Z,0.00
2022-10-13T03:17:13.285Z,0.00
2022-10-13T03:18:08.907Z,0.00
2022-10-13T03:19:08.932Z,0.00
2022-10-13T03:20:08.950Z,0.00
2022-10-13T03:21:08.975Z,0.00
2022-10-13T03:22:09.000Z,0.00
2022-10-13T03:23:09.031Z,0.00
2022-10-13T03:24:09.050Z,0.00
2022-10-13T03:25:09.059Z,0.00
2022-10-13T03:26:09.077Z,0.00
2022-10-13T03:27:09.101Z,0.00
2022-10-13T03:28:09.120Z,0.00
2022-10-13T03:29:09.142Z,0.00
2022-10-13T03:30:09.162Z,0.00
2022-10-13T03:31:09.181Z,0.00
2022-10-13T03:32:09.204Z,0.00
2022-10-13T03:33:09.224Z,0.00
2022-10-13T03:34:09.246Z,0.00
2022-10-13T03:35:09.298Z,0.00
2022-10-13T03:36:09.295Z,0.00
2022-10-13T03:37:09.313Z,0.00
2022-10-13T03:38:09.336Z,0.00
2022-10-13T03:39:09.361Z,0.00
2022-10-13T03:40:09.372Z,0.00
2022-10-13T03:41:09.395Z,0.00
2022-10-13T03:42:09.418Z,0.00
2022-10-13T03:43:09.436Z,0.00
2022-10-13T03:44:09.460Z,0.00
2022-10-13T03:45:09.479Z,0.00
2022-10-13T03:46:09.510Z,0.00
2022-10-13T03:47:09.523Z,0.00
2022-10-13T03:48:09.544Z,0.00
2022-10-13T03:49:09.568Z,0.00
2022-10-13T03:50:09.589Z,0.00
2022-10-13T03:51:09.605Z,0.00
2022-10-13T03:52:09.627Z,0.00
2022-10-13T03:53:09.650Z,0.00
2022-10-13T03:54:09.669Z,0.00
2022-10-13T03:55:09.692Z,0.00
2022-10-13T03:56:09.710Z,0.00
2022-10-13T03:57:09.732Z,0.00
2022-10-13T03:58:09.754Z,0.00
2022-10-13T03:59:09.776Z,0.00
2022-10-13T04:00:09.797Z,0.00
2022-10-13T04:01:09.818Z,0.00
2022-10-13T04:02:09.839Z,0.00
2022-10-13T04:03:09.862Z,0.00
2022-10-13T04:04:09.882Z,0.00
2022-10-13T04:05:09.918Z,0.00
2022-10-13T04:06:09.924Z,0.00
2022-10-13T04:07:09.945Z,0.00
2022-10-13T04:08:09.966Z,0.00
2022-10-13T04:09:10.000Z,0.00
2022-10-13T04:10:11.471Z,0.00
2022-10-13T04:11:10.033Z,0.00
2022-10-13T04:12:10.055Z,0.00
2022-10-13T04:13:10.071Z,0.00
2022-10-13T04:14:10.093Z,0.00
2022-10-13T04:15:10.122Z,0.00
2022-10-13T04:16:10.153Z,0.00
2022-10-13T04:17:10.164Z,0.00
2022-10-13T04:18:10.180Z,0.00
2022-10-13T04:19:10.199Z,0.00
2022-10-13T04:20:10.222Z,0.00
2022-10-13T04:21:10.246Z,0.00
2022-10-13T04:22:10.264Z,0.00
2022-10-13T04:23:10.287Z,0.00
2022-10-13T04:24:10.306Z,0.00
2022-10-13T04:25:10.398Z,0.00
2022-10-13T04:26:10.352Z,0.00
2022-10-13T04:27:10.374Z,0.00
2022-10-13T04:28:10.395Z,0.00
2022-10-13T04:29:10.413Z,0.00
2022-10-13T04:30:13.391Z,0.00
2022-10-13T04:31:10.458Z,0.00
2022-10-13T04:32:10.486Z,0.00
2022-10-13T04:33:10.497Z,0.00
2022-10-13T04:34:10.519Z,0.00
2022-10-13T04:35:10.556Z,0.00
2022-10-13T04:36:10.566Z,0.00
2022-10-13T04:37:10.584Z,0.00
2022-10-13T04:38:10.609Z,0.00
2022-10-13T04:39:10.630Z,0.00
2022-10-13T04:40:10.648Z,0.00
2022-10-13T04:41:10.676Z,0.00
2022-10-13T04:42:10.750Z,0.00
2022-10-13T04:43:10.711Z,0.00
2022-10-13T04:44:10.748Z,0.00
2022-10-13T04:45:10.755Z,0.00
2022-10-13T04:46:17.945Z,0.00
2022-10-13T04:48:15.266Z,0.00
2022-10-13T04:49:14.810Z,0.00
2022-10-13T04:51:18.835Z,0.00
2022-10-13T04:52:19.305Z,0.00
2022-10-13T04:54:23.318Z,0.00
2022-10-13T04:55:22.861Z,0.00
2022-10-13T04:57:26.893Z,0.00
2022-10-13T04:58:26.905Z,0.00
2022-10-13T05:00:31.428Z,0.00
2022-10-13T05:01:30.935Z,0.00
2022-10-13T05:03:34.948Z,0.00
2022-10-13T05:04:34.961Z,0.00
2022-10-13T05:06:58.859Z,0.00
2022-10-13T05:07:38.983Z,0.00
2022-10-13T05:09:43.009Z,0.00
2022-10-13T05:10:43.016Z,0.00
2022-10-13T05:12:36.497Z,0.00
2022-10-13T05:13:36.030Z,0.00
2022-10-13T05:15:40.044Z,0.00
2022-10-13T05:16:40.055Z,0.00
2022-10-13T05:18:44.558Z,0.00
2022-10-13T05:19:44.091Z,0.00
2022-10-13T05:21:48.117Z,0.00
2022-10-13T05:22:48.137Z,0.00
2022-10-13T05:24:52.620Z,0.00
2022-10-13T05:25:52.178Z,0.00
2022-10-13T05:27:56.201Z,0.00
2022-10-13T05:28:56.208Z,0.00
2022-10-13T05:43:01.648Z,0.00
2022-10-13T05:43:59.691Z,0.00
2022-10-13T05:46:03.703Z,0.00
2022-10-13T05:47:07.383Z,0.00
2022-10-13T05:49:08.206Z,0.00
2022-10-13T05:50:07.746Z,0.00
2022-10-13T05:52:00.687Z,5.63
2022-10-13T05:53:00.695Z,5.63
2022-10-13T05:55:06.683Z,5.63
2022-10-13T05:56:04.761Z,5.63
2022-10-13T05:58:08.777Z,5.63
2022-10-13T05:59:08.785Z,5.63
2022-10-13T06:01:13.272Z,5.63
2022-10-13T06:02:13.038Z,5.63
2022-10-13T06:04:17.037Z,11.25
2022-10-13T06:05:17.052Z,11.25
2022-10-13T06:07:21.539Z,11.25
2022-10-13T06:08:21.092Z,11.25
2022-10-13T06:10:25.101Z,11.25
2022-10-13T06:11:25.114Z,16.88
2022-10-13T06:13:29.611Z,16.88
2022-10-13T06:14:29.134Z,16.88
2022-10-13T06:16:33.156Z,16.88
2022-10-13T06:17:33.164Z,16.88
2022-10-13T06:19:39.154Z,16.88
2022-10-13T06:20:37.197Z,16.88
2022-10-13T06:22:30.123Z,16.88
2022-10-13T06:23:30.135Z,22.50
2022-10-13T06:25:34.622Z,22.50
2022-10-13T06:26:34.163Z,22.50
2022-10-13T06:28:38.219Z,28.13
2022-10-13T06:29:38.187Z,28.13
2022-10-13T06:31:42.674Z,33.75
2022-10-13T06:32:42.216Z,33.75
2022-10-13T06:34:46.239Z,39.38
2022-10-13T06:35:46.251Z,45.00
2022-10-13T06:37:50.752Z,50.63
2022-10-13T06:38:50.280Z,50.63
2022-10-13T06:40:54.307Z,61.88
2022-10-13T06:41:54.310Z,61.88
2022-10-13T06:52:53.825Z,101.25
2022-10-13T06:53:31.855Z,106.88
2022-10-13T06:55:35.854Z,112.50
2022-10-13T06:56:35.864Z,112.50
2022-10-13T06:58:40.351Z,112.50
2022-10-13T06:59:39.892Z,112.50
2022-10-13T07:01:43.900Z,112.50
2022-10-13T07:02:43.918Z,112.50
2022-10-13T07:13:23.438Z,118.13
2022-10-13T07:14:21.457Z,118.13
2022-10-13T07:16:25.472Z,123.75
2022-10-13T07:17:25.491Z,123.75
2022-10-13T07:19:29.975Z,129.38
2022-10-13T07:20:29.524Z,129.38
2022-10-13T07:21:29.539Z,129.38
2022-10-13T07:22:29.565Z,123.75
2022-10-13T07:23:29.596Z,123.75
2022-10-13T07:24:29.603Z,123.75
2022-10-13T07:25:29.631Z,123.75
2022-10-13T07:26:29.650Z,123.75
2022-10-13T07:27:29.674Z,123.75
2022-10-13T07:28:29.749Z,106.88
2022-10-13T07:29:29.714Z,101.25
2022-10-13T07:30:29.745Z,112.50
2022-10-13T07:31:29.764Z,123.75
2022-10-13T07:32:29.789Z,129.38
2022-10-13T07:33:29.806Z,123.75
2022-10-13T07:34:29.830Z,123.75
2022-10-13T07:35:31.013Z,129.38
2022-10-13T07:36:29.882Z,123.75
2022-10-13T07:37:29.900Z,123.75
2022-10-13T07:38:29.945Z,129.38
2022-10-13T07:39:29.951Z,135.00
2022-10-13T07:40:29.968Z,135.00
2022-10-13T07:41:29.987Z,140.63
2022-10-13T07:42:30.012Z,140.63
2022-10-13T07:43:30.039Z,146.25
2022-10-13T07:44:30.066Z,146.25
2022-10-13T07:45:30.081Z,151.88
2022-10-13T07:46:30.105Z,151.88
2022-10-13T07:47:30.125Z,157.50
2022-10-13T07:48:30.146Z,168.75
2022-10-13T07:49:30.171Z,174.38
2022-10-13T07:50:30.195Z,174.38
2022-10-13T07:51:30.219Z,174.38
2022-10-13T07:52:30.241Z,174.38
2022-10-13T07:53:30.265Z,174.38
2022-10-13T07:54:30.285Z,180.00
2022-10-13T07:55:30.308Z,180.00
2022-10-13T07:56:30.331Z,180.00
2022-10-13T07:57:30.358Z,191.25
2022-10-13T07:58:30.377Z,202.50
2022-10-13T07:59:30.399Z,213.75
2022-10-13T08:00:30.432Z,208.13
2022-10-13T08:01:30.491Z,202.50
2022-10-13T08:02:30.476Z,191.25
2022-10-13T08:03:30.540Z,185.63
2022-10-13T08:04:30.517Z,202.50
2022-10-13T08:05:30.538Z,219.38
2022-10-13T08:06:30.594Z,208.13
2022-10-13T08:07:30.593Z,191.25
2022-10-13T08:08:30.609Z,185.63
2022-10-13T08:09:30.643Z,180.00
2022-10-13T08:10:30.659Z,180.00
2022-10-13T08:11:30.678Z,185.63
2022-10-13T08:12:30.711Z,196.88
2022-10-13T08:13:30.726Z,230.63
2022-10-13T08:14:30.926Z,225.00
2022-10-13T08:15:30.776Z,208.13
2022-10-13T08:16:30.800Z,208.13
2022-10-13T08:17:30.822Z,219.38
2022-10-13T08:18:30.842Z,225.00
2022-10-13T08:19:30.864Z,253.13
2022-10-13T08:20:40.956Z,286.88
2022-10-13T08:22:00.575Z,303.75
2022-10-13T08:22:30.942Z,309.38
2022-10-13T08:23:30.963Z,292.50
2022-10-13T08:24:30.986Z,309.38
2022-10-13T08:25:31.010Z,343.13
2022-10-13T08:26:31.035Z,354.38
2022-10-13T08:27:49.772Z,360.00
2022-10-13T08:28:31.136Z,365.63
2022-10-13T08:29:31.137Z,376.88
2022-10-13T08:30:31.278Z,371.25
2022-10-13T08:31:31.537Z,388.13
2022-10-13T08:32:31.184Z,410.63
2022-10-13T08:33:31.204Z,427.50
2022-10-13T08:34:31.225Z,399.38
2022-10-13T08:35:34.950Z,382.50
2022-10-13T08:36:31.275Z,371.25
2022-10-13T08:37:31.321Z,354.38
2022-10-13T08:38:31.332Z,343.13
2022-10-13T08:39:31.349Z,320.63
2022-10-13T08:40:31.376Z,303.75
2022-10-13T08:41:31.403Z,286.88
2022-10-13T08:42:31.426Z,286.88
2022-10-13T08:43:31.459Z,264.38
2022-10-13T08:45:46.963Z,264.38
2022-10-13T08:46:31.529Z,258.75
2022-10-13T08:47:31.557Z,258.75
2022-10-13T08:48:31.587Z,253.13
2022-10-13T08:49:31.610Z,253.13
2022-10-13T08:50:31.629Z,253.13
2022-10-13T08:51:31.660Z,258.75
2022-10-13T08:52:31.680Z,270.00
2022-10-13T08:53:31.706Z,264.38
2022-10-13T08:54:31.734Z,258.75
2022-10-13T08:55:31.762Z,258.75
2022-10-13T08:56:31.783Z,258.75
2022-10-13T08:57:31.809Z,275.63
2022-10-13T08:58:31.839Z,270.00
2022-10-13T08:59:31.859Z,275.63
2022-10-13T09:00:31.889Z,275.63
2022-10-13T09:01:31.980Z,286.88
2022-10-13T09:02:31.942Z,292.50
2022-10-13T09:03:31.963Z,298.13
2022-10-13T09:04:32.114Z,292.50
2022-10-13T09:05:32.019Z,286.88
2022-10-13T09:06:32.070Z,286.88
2022-10-13T09:07:32.069Z,286.88
2022-10-13T09:08:32.100Z,292.50
2022-10-13T09:09:32.121Z,286.88
2022-10-13T09:10:32.147Z,298.13
2022-10-13T09:11:32.167Z,298.13
2022-10-13T09:12:32.202Z,298.13
2022-10-13T09:13:32.229Z,292.50
2022-10-13T09:14:32.249Z,303.75
2022-10-13T09:15:32.270Z,303.75
2022-10-13T09:16:32.304Z,309.38
2022-10-13T09:17:32.330Z,315.00
2022-10-13T09:18:32.372Z,309.38
2022-10-13T09:19:32.382Z,298.13
2022-10-13T09:20:32.427Z,298.13
2022-10-13T09:21:32.430Z,303.75
2022-10-13T09:22:32.457Z,303.75
2022-10-13T09:23:32.478Z,298.13
2022-10-13T09:24:32.509Z,298.13
2022-10-13T09:25:32.533Z,298.13
2022-10-13T09:26:32.558Z,303.75
2022-10-13T09:27:32.588Z,309.38
2022-10-13T09:28:32.655Z,309.38
2022-10-13T09:29:32.643Z,309.38
2022-10-13T09:30:32.665Z,315.00
2022-10-13T09:31:32.694Z,320.63
2022-10-13T09:32:32.716Z,326.25
2022-10-13T09:33:32.742Z,309.38
2022-10-13T09:34:32.771Z,315.00
2022-10-13T09:35:32.793Z,315.00
2022-10-13T09:36:32.845Z,320.63
2022-10-13T09:37:32.848Z,320.63
2022-10-13T09:38:32.876Z,309.38
2022-10-13T09:39:32.900Z,298.13
2022-10-13T09:40:33.037Z,298.13
2022-10-13T09:41:32.953Z,292.50
2022-10-13T09:42:32.977Z,286.88
2022-10-13T09:43:33.006Z,292.50
2022-10-13T09:44:33.033Z,298.13
2022-10-13T09:45:33.053Z,303.75
2022-10-13T09:46:33.090Z,298.13
2022-10-13T09:47:33.108Z,298.13
2022-10-13T09:48:33.140Z,298.13
2022-10-13T09:49:33.161Z,298.13
2022-10-13T09:50:33.199Z,298.13
2022-10-13T09:51:33.218Z,298.13
2022-10-13T09:52:33.242Z,286.88
2022-10-13T09:53:33.267Z,281.25
2022-10-13T09:54:33.295Z,281.25
2022-10-13T09:55:33.323Z,281.25
2022-10-13T09:56:33.344Z,281.25
2022-10-13T09:57:33.373Z,286.88
2022-10-13T09:58:33.451Z,298.13
2022-10-13T09:59:33.431Z,303.75
2022-10-13T10:00:33.461Z,303.75
2022-10-13T10:01:33.480Z,292.50
2022-10-13T10:02:33.892Z,292.50
2022-10-13T10:03:33.554Z,309.38
2022-10-13T10:04:33.562Z,326.25
2022-10-13T10:05:33.589Z,326.25
2022-10-13T10:06:33.616Z,331.88
2022-10-13T10:07:33.646Z,337.50
2022-10-13T10:08:44.725Z,343.13
2022-10-13T10:09:33.699Z,331.88
2022-10-13T10:10:33.725Z,320.63
2022-10-13T10:11:33.745Z,298.13
2022-10-13T10:12:33.774Z,292.50
2022-10-13T10:13:33.801Z,303.75
2022-10-13T10:14:33.833Z,326.25
2022-10-13T10:15:33.857Z,331.88
2022-10-13T10:16:33.877Z,331.88
2022-10-13T10:17:33.907Z,320.63
2022-10-13T10:18:33.935Z,315.00
2022-10-13T10:19:33.963Z,315.00
2022-10-13T10:20:33.989Z,303.75
2022-10-13T10:21:34.016Z,286.88
2022-10-13T10:22:34.052Z,275.63
2022-10-13T10:23:34.126Z,270.00
2022-10-13T10:24:34.195Z,275.63
2022-10-13T10:25:34.128Z,281.25
2022-10-13T10:26:34.148Z,264.38
2022-10-13T10:27:34.180Z,236.25
2022-10-13T10:28:34.260Z,230.63
2022-10-13T10:29:34.238Z,230.63
2022-10-13T10:30:34.263Z,236.25
2022-10-13T10:31:34.289Z,213.75
2022-10-13T10:32:34.321Z,208.13
2022-10-13T10:33:34.343Z,219.38
2022-10-13T10:34:34.389Z,219.38
2022-10-13T10:35:34.394Z,208.13
2022-10-13T10:36:34.424Z,208.13
2022-10-13T10:37:34.449Z,196.88
2022-10-13T10:38:34.472Z,196.88
2022-10-13T10:39:34.502Z,196.88
2022-10-13T10:40:34.557Z,196.88
2022-10-13T10:41:34.555Z,180.00
2022-10-13T10:42:34.583Z,168.75
2022-10-13T10:43:34.611Z,157.50
2022-10-13T10:44:34.729Z,163.13
2022-10-13T10:45:34.667Z,174.38
2022-10-13T10:46:34.693Z,180.00
2022-10-13T10:47:34.717Z,202.50
2022-10-13T10:48:34.745Z,230.63
2022-10-13T10:49:34.768Z,241.88
2022-10-13T10:50:34.796Z,241.88
2022-10-13T10:51:34.821Z,253.13
2022-10-13T10:52:34.851Z,270.00
2022-10-13T10:53:34.876Z,275.63
2022-10-13T10:54:34.903Z,292.50
2022-10-13T10:55:34.933Z,292.50
2022-10-13T10:56:34.960Z,303.75
2022-10-13T10:57:34.981Z,326.25
2022-10-13T10:58:35.011Z,348.75
2022-10-13T10:59:35.034Z,354.38
2022-10-13T11:00:35.074Z,376.88
2022-10-13T11:01:35.165Z,376.88
2022-10-13T11:02:35.115Z,376.88
2022-10-13T11:03:35.148Z,376.88
2022-10-13T11:04:35.166Z,371.25
2022-10-13T11:05:35.199Z,337.50
2022-10-13T11:06:35.224Z,320.63
2022-10-13T11:07:35.254Z,326.25
2022-10-13T11:08:35.276Z,309.38
2022-10-13T11:09:35.305Z,298.13
2022-10-13T11:10:35.330Z,264.38
2022-10-13T11:11:37.730Z,241.88
2022-10-13T11:12:35.387Z,230.63
2022-10-13T11:13:35.412Z,230.63
2022-10-13T11:14:35.445Z,225.00
2022-10-13T11:15:35.469Z,213.75
2022-10-13T11:16:35.494Z,196.88
2022-10-13T11:17:35.526Z,180.00
2022-10-13T11:18:35.554Z,168.75
2022-10-13T11:19:35.579Z,157.50
2022-10-13T11:20:35.611Z,163.13
2022-10-13T11:21:35.633Z,185.63
2022-10-13T11:22:35.664Z,236.25
2022-10-13T11:23:35.687Z,281.25
2022-10-13T11:24:35.715Z,281.25
2022-10-13T11:25:36.370Z,275.63
2022-10-13T11:26:35.770Z,292.50
2022-10-13T11:27:35.799Z,315.00
2022-10-13T11:28:35.873Z,320.63
2022-10-13T11:29:35.850Z,320.63
2022-10-13T11:30:35.884Z,348.75
2022-10-13T11:31:36.270Z,360.00
2022-10-13T11:32:35.930Z,331.88
2022-10-13T11:33:35.958Z,320.63
2022-10-13T11:34:35.983Z,303.75
2022-10-13T11:35:36.011Z,303.75
2022-10-13T11:36:36.041Z,281.25
2022-10-13T11:37:36.069Z,275.63
2022-10-13T11:38:36.093Z,275.63
2022-10-13T11:39:36.127Z,281.25
2022-10-13T11:40:36.147Z,286.88
2022-10-13T11:41:36.176Z,292.50
2022-10-13T11:42:36.204Z,292.50
2022-10-13T11:43:36.231Z,281.25
2022-10-13T11:44:36.295Z,270.00
2022-10-13T11:45:36.287Z,270.00
2022-10-13T11:46:36.311Z,281.25
2022-10-13T11:47:36.341Z,292.50
2022-10-13T11:48:36.375Z,298.13
2022-10-13T11:49:36.398Z,303.75
2022-10-13T11:50:36.424Z,303.75
2022-10-13T11:51:36.453Z,303.75
2022-10-13T11:52:36.480Z,315.00
2022-10-13T11:53:36.508Z,326.25
2022-10-13T11:54:36.545Z,326.25
2022-10-13T11:55:36.565Z,320.63
2022-10-13T11:56:39.669Z,320.63
2022-10-13T11:57:36.620Z,326.25
2022-10-13T11:58:36.649Z,337.50
2022-10-13T11:59:36.677Z,348.75
2022-10-13T12:00:36.702Z,354.38
2022-10-13T12:01:36.728Z,354.38
2022-10-13T12:02:37.024Z,354.38
2022-10-13T12:03:36.783Z,354.38
2022-10-13T12:04:36.811Z,348.75
2022-10-13T12:05:36.840Z,331.88
2022-10-13T12:06:36.868Z,315.00
2022-10-13T12:07:36.903Z,309.38
2022-10-13T12:08:36.926Z,303.75
2022-10-13T12:09:36.963Z,286.88
2022-10-13T12:10:36.985Z,281.25
2022-10-13T12:11:37.010Z,270.00
2022-10-13T12:12:37.039Z,264.38
2022-10-13T12:13:37.068Z,258.75
2022-10-13T12:15:37.124Z,247.50
2022-10-13T12:16:37.153Z,236.25
2022-10-13T12:17:37.180Z,225.00
2022-10-13T12:18:37.214Z,219.38
2022-10-13T12:19:37.239Z,225.00
2022-10-13T12:20:37.267Z,230.63
2022-10-13T12:21:37.294Z,225.00
2022-10-13T12:22:40.262Z,219.38
2022-10-13T12:23:37.351Z,213.75
2022-10-13T12:24:37.380Z,202.50
2022-10-13T12:25:37.406Z,185.63
2022-10-13T12:26:37.439Z,180.00
2022-10-13T12:27:37.467Z,180.00
2022-10-13T12:28:37.551Z,180.00
2022-10-13T12:29:37.586Z,180.00
2022-10-13T12:30:37.554Z,180.00
2022-10-13T12:31:37.578Z,196.88
2022-10-13T12:32:37.614Z,196.88
2022-10-13T12:33:37.640Z,208.13
2022-10-13T12:34:37.670Z,213.75
2022-10-13T12:35:37.701Z,213.75
2022-10-13T12:36:37.721Z,208.13
2022-10-13T12:37:37.755Z,202.50
2022-10-13T12:38:37.782Z,208.13
2022-10-13T12:39:37.820Z,230.63
2022-10-13T12:40:37.835Z,219.38
2022-10-13T12:41:37.865Z,241.88
2022-10-13T12:42:37.891Z,270.00
2022-10-13T12:43:37.918Z,275.63
2022-10-13T12:44:37.948Z,275.63
2022-10-13T12:45:37.979Z,253.13
2022-10-13T12:46:38.002Z,213.75
2022-10-13T12:47:38.056Z,196.88
2022-10-13T12:48:38.078Z,213.75
2022-10-13T12:49:38.105Z,208.13
2022-10-13T12:50:38.119Z,208.13
2022-10-13T12:51:38.142Z,191.25
2022-10-13T12:52:38.173Z,208.13
2022-10-13T12:53:38.204Z,253.13
2022-10-13T12:54:38.235Z,253.13
2022-10-13T12:55:38.259Z,247.50
2022-10-13T12:56:38.286Z,253.13
2022-10-13T12:57:38.336Z,258.75
2022-10-13T12:58:38.345Z,264.38
2022-10-13T12:59:38.373Z,258.75
2022-10-13T13:00:38.490Z,225.00
2022-10-13T13:01:38.430Z,225.00
2022-10-13T13:02:38.458Z,230.63
2022-10-13T13:03:38.487Z,247.50
2022-10-13T13:04:38.515Z,270.00
2022-10-13T13:05:38.538Z,258.75
2022-10-13T13:06:38.580Z,253.13
2022-10-13T13:07:38.604Z,247.50
2022-10-13T13:08:38.627Z,247.50
2022-10-13T13:09:38.667Z,247.50
2022-10-13T13:10:38.680Z,253.13
2022-10-13T13:11:38.718Z,253.13
2022-10-13T13:12:38.738Z,247.50
2022-10-13T13:13:38.769Z,247.50
2022-10-13T13:14:38.801Z,236.25
2022-10-13T13:15:38.829Z,213.75
2022-10-13T13:16:38.854Z,202.50
2022-10-13T13:17:57.333Z,219.38
2022-10-13T13:18:38.909Z,236.25
2022-10-13T13:19:38.937Z,241.88
2022-10-13T13:20:38.968Z,247.50
2022-10-13T13:21:38.991Z,264.38
2022-10-13T13:22:39.044Z,264.38
2022-10-13T13:23:39.059Z,253.13
2022-10-13T13:24:40.672Z,236.25
2022-10-13T13:25:39.108Z,213.75
2022-10-13T13:26:39.133Z,180.00
2022-10-13T13:27:39.163Z,140.63
2022-10-13T13:28:39.306Z,123.75
2022-10-13T13:29:39.221Z,101.25
2022-10-13T13:30:39.260Z,90.00
2022-10-13T13:31:39.276Z,90.00
2022-10-13T13:32:39.301Z,95.63
2022-10-13T13:33:39.331Z,118.13
2022-10-13T13:34:39.358Z,140.63
2022-10-13T13:35:39.388Z,146.25
2022-10-13T13:36:39.415Z,140.63
2022-10-13T13:37:39.441Z,112.50
2022-10-13T13:38:39.476Z,90.00
2022-10-13T13:39:39.503Z,73.13
2022-10-13T13:40:39.529Z,67.50
2022-10-13T13:41:39.556Z,67.50
2022-10-13T13:42:39.581Z,84.38
2022-10-13T13:43:39.611Z,101.25
2022-10-13T13:44:39.639Z,112.50
2022-10-13T13:45:39.672Z,118.13
2022-10-13T13:46:39.694Z,112.50
2022-10-13T13:47:39.728Z,101.25
2022-10-13T13:48:39.753Z,84.38
2022-10-13T13:49:39.781Z,67.50
2022-10-13T13:50:39.803Z,56.25
2022-10-13T13:51:39.835Z,45.00
2022-10-13T13:52:39.863Z,39.38
2022-10-13T13:53:39.892Z,33.75
2022-10-13T13:54:39.914Z,33.75
2022-10-13T13:55:39.943Z,28.13
2022-10-13T13:56:39.968Z,33.75
2022-10-13T13:57:40.004Z,45.00
2022-10-13T13:58:40.027Z,50.63
2022-10-13T13:59:40.051Z,67.50
2022-10-13T14:00:40.078Z,61.88
2022-10-13T14:01:40.182Z,73.13
2022-10-13T14:02:40.133Z,73.13
2022-10-13T14:03:40.163Z,67.50
2022-10-13T14:04:40.188Z,61.88
2022-10-13T14:05:40.220Z,56.25
2022-10-13T14:06:40.243Z,56.25
2022-10-13T14:07:40.280Z,56.25
2022-10-13T14:09:40.326Z,56.25
2022-10-13T14:10:40.353Z,50.63
2022-10-13T14:11:40.381Z,45.00
2022-10-13T14:12:40.411Z,45.00
2022-10-13T14:13:40.443Z,39.38
2022-10-13T14:14:40.463Z,33.75
2022-10-13T14:15:40.483Z,33.75
2022-10-13T14:16:40.513Z,33.75
2022-10-13T14:17:40.541Z,28.13
2022-10-13T14:18:40.571Z,28.13
2022-10-13T14:19:40.592Z,28.13